Time;durP1;ratioP1;P1;durP2;ratioP2;P2;SDS_P1;SDS_P2;PMS_P1;PMS_P2;Temp;Humidity;BMP_temperature;BMP_pressure;BME280_temperature;BME280_humidity;BME280_pressure;Samples;Min_cycle;Max_cycle;Signal;HPM_P1;HPM_P2
2021/11/19 00:01:58;;;;;;;16.48;7.10;;;;;;;;;;5030379;28;20088;-68
2021/11/19 00:04:28;;;;;;;20.60;7.45;;;;;;;;;;5028721;28;20160;-68
2021/11/19 00:06:57;;;;;;;21.00;7.10;;;;;;;;;;5030000;28;20040;-68
2021/11/19 00:09:26;;;;;;;16.83;7.05;;;;;;;;;;5027130;28;20018;-68
2021/11/19 00:11:58;;;;;;;20.95;6.97;;;;;;;;;;5032593;28;20028;-68
2021/11/19 00:14:27;;;;;;;18.80;7.57;;;;;;;;;;5028977;28;20064;-68
2021/11/19 00:16:57;;;;;;;18.48;7.32;;;;;;;;;;5030106;28;20041;-68
2021/11/19 00:19:25;;;;;;;15.45;7.00;;;;;;;;;;5027200;28;20488;-68
2021/11/19 00:21:56;;;;;;;17.77;7.47;;;;;;;;;;5028498;28;20033;-68
2021/11/19 00:24:22;;;;;;;16.75;7.10;;;;;;;;;;5030316;28;20037;-68
2021/11/19 00:26:56;;;;;;;18.73;6.82;;;;;;;;;;5031126;28;20387;-68
2021/11/19 00:29:22;;;;;;;17.42;7.47;;;;;;;;;;5028960;28;20033;-68
2021/11/19 00:31:47;;;;;;;21.85;6.95;;;;;;;;;;5029240;28;20032;-68
2021/11/19 00:34:14;;;;;;;18.30;7.18;;;;;;;;;;5028056;28;20037;-68
2021/11/19 00:36:41;;;;;;;18.05;7.13;;;;;;;;;;5032193;28;20033;-68
2021/11/19 00:39:09;;;;;;;;;;;;;;;;;;5026560;28;20045;-68
2021/11/19 00:41:35;;;;;;;18.95;6.72;;;;;;;;;;5028133;28;19917;-67
2021/11/19 00:44:03;;;;;;;18.52;7.40;;;;;;;;;;5029900;28;20040;-68
2021/11/19 00:46:30;;;;;;;16.92;7.28;;;;;;;;;;5028220;28;20163;-68
2021/11/19 00:48:59;;;;;;;17.80;6.95;;;;;;;;;;5027341;28;20033;-68
2021/11/19 00:51:34;;;;;;;18.33;7.22;;;;;;;;;;5028825;28;20026;-68
2021/11/19 00:54:00;;;;;;;16.77;6.53;;;;;;;;;;5028792;28;20033;-68
2021/11/19 00:56:34;;;;;;;20.27;7.22;;;;;;;;;;5029525;28;20032;-68
2021/11/19 00:59:01;;;;;;;15.35;6.47;;;;;;;;;;4335265;28;10000042;-67
2021/11/19 01:01:36;;;;;;;16.40;6.53;;;;;;;;;;5029260;28;20104;-68
2021/11/19 01:04:06;;;;;;;20.48;7.53;;;;;;;;;;5029368;28;20033;-68
2021/11/19 01:06:33;;;;;;;18.23;7.18;;;;;;;;;;5029857;28;20090;-68
2021/11/19 01:09:00;;;;;;;18.27;6.47;;;;;;;;;;5030282;28;20025;-68
2021/11/19 01:11:33;;;;;;;21.63;6.82;;;;;;;;;;5029594;28;20029;-67
2021/11/19 01:14:01;;;;;;;20.58;6.78;;;;;;;;;;5031038;28;20116;-68
2021/11/19 01:17:01;;;;;;;19.67;6.78;;;;;;;;;;5031112;28;20029;-68
2021/11/19 01:19:42;;;;;;;16.85;6.32;;;;;;;;;;5026673;28;20025;-68
2021/11/19 01:22:12;;;;;;;17.10;6.63;;;;;;;;;;5022579;28;20033;-67
2021/11/19 01:24:38;;;;;;;14.65;6.82;;;;;;;;;;5028469;28;20041;-68
2021/11/19 01:27:05;;;;;;;16.45;6.88;;;;;;;;;;5032685;28;20044;-68
2021/11/19 01:29:31;;;;;;;16.35;6.57;;;;;;;;;;5028203;28;20029;-67
2021/11/19 01:32:31;;;;;;;13.70;6.25;;;;;;;;;;5032240;28;20475;-68
2021/11/19 01:34:57;;;;;;;15.68;6.35;;;;;;;;;;5001716;28;20088;-68
2021/11/19 01:37:31;;;;;;;17.92;6.10;;;;;;;;;;5028375;28;20065;-68
2021/11/19 01:39:57;;;;;;;13.32;5.82;;;;;;;;;;5029453;28;20026;-68
2021/11/19 01:42:40;;;;;;;17.98;6.25;;;;;;;;;;5027088;28;20028;-68
2021/11/19 01:45:44;;;;;;;17.58;6.78;;;;;;;;;;5028076;28;20033;-68
2021/11/19 01:48:12;;;;;;;17.48;6.57;;;;;;;;;;5029343;28;20478;-68
2021/11/19 01:51:19;;;;;;;15.68;6.30;;;;;;;;;;5027462;28;20029;-68
2021/11/19 01:53:53;;;;;;;11.05;6.00;;;;;;;;;;5029434;28;20029;-68
2021/11/19 01:56:25;;;;;;;17.48;6.45;;;;;;;;;;5027698;28;20032;-68
2021/11/19 01:58:57;;;;;;;16.80;6.22;;;;;;;;;;5023979;28;20433;-68
2021/11/19 02:01:49;;;;;;;16.92;5.75;;;;;;;;;;5028740;28;20036;-68
2021/11/19 02:04:24;;;;;;;14.85;5.88;;;;;;;;;;5028226;28;20048;-68
2021/11/19 02:07:02;;;;;;;16.42;5.90;;;;;;;;;;5028212;28;20797;-68
2021/11/19 02:09:53;;;;;;;12.98;5.57;;;;;;;;;;5026536;28;20479;-68
2021/11/19 02:12:28;;;;;;;11.98;5.70;;;;;;;;;;5025968;28;20068;-68
2021/11/19 02:15:11;;;;;;;15.60;6.10;;;;;;;;;;5027115;28;20033;-68
2021/11/19 02:17:38;;;;;;;15.52;6.30;;;;;;;;;;5019745;28;20036;-68
2021/11/19 02:20:13;;;;;;;15.90;6.18;;;;;;;;;;5021073;28;20040;-67
2021/11/19 02:22:56;;;;;;;13.52;6.68;;;;;;;;;;5027706;28;20082;-68
2021/11/19 02:25:31;;;;;;;17.75;6.13;;;;;;;;;;5026450;28;20601;-68
2021/11/19 02:28:05;;;;;;;16.15;6.70;;;;;;;;;;5027070;28;20116;-68
2021/11/19 02:30:35;;;;;;;14.25;6.55;;;;;;;;;;5026192;28;20046;-68
2021/11/19 02:33:04;;;;;;;16.38;6.22;;;;;;;;;;5029748;28;20037;-68
2021/11/19 02:35:39;;;;;;;16.45;6.72;;;;;;;;;;5027555;28;20272;-68
2021/11/19 02:38:11;;;;;;;16.92;6.85;;;;;;;;;;5028268;28;20159;-68
2021/11/19 02:40:40;;;;;;;15.73;6.50;;;;;;;;;;5025093;28;20079;-68
2021/11/19 02:43:13;;;;;;;17.00;6.72;;;;;;;;;;5026274;28;20062;-68
2021/11/19 02:45:43;;;;;;;15.45;6.68;;;;;;;;;;5027443;28;20033;-67
2021/11/19 02:48:12;;;;;;;19.70;7.35;;;;;;;;;;5029678;28;20079;-67
2021/11/19 02:50:38;;;;;;;20.48;7.43;;;;;;;;;;5025590;28;20040;-68
2021/11/19 02:53:05;;;;;;;19.42;7.70;;;;;;;;;;5029383;28;20470;-68
2021/11/19 02:55:34;;;;;;;15.60;7.30;;;;;;;;;;5028882;28;20551;-68
2021/11/19 02:58:01;;;;;;;16.48;6.90;;;;;;;;;;5028646;28;20037;-68
2021/11/19 03:00:36;;;;;;;17.50;7.22;;;;;;;;;;5017200;28;20257;-68
2021/11/19 03:03:01;;;;;;;14.88;7.43;;;;;;;;;;5029784;28;20525;-68
2021/11/19 03:05:28;;;;;;;15.75;7.28;;;;;;;;;;5026390;28;20413;-67
2021/11/19 03:07:56;;;;;;;14.50;6.50;;;;;;;;;;5029384;28;20032;-67
2021/11/19 03:10:31;;;;;;;20.23;6.88;;;;;;;;;;5025779;28;21103;-68
2021/11/19 03:13:01;;;;;;;16.10;7.47;;;;;;;;;;5028053;28;20025;-68
2021/11/19 03:15:35;;;;;;;14.93;6.82;;;;;;;;;;5028047;28;20036;-68
2021/11/19 03:18:01;;;;;;;14.02;6.68;;;;;;;;;;5027705;28;20496;-67
2021/11/19 03:20:27;;;;;;;18.23;8.30;;;;;;;;;;5023071;28;20038;-67
2021/11/19 03:22:55;;;;;;;15.07;7.18;;;;;;;;;;5027421;28;20378;-67
2021/11/19 03:25:28;;;;;;;15.15;7.15;;;;;;;;;;5027782;28;20437;-67
2021/11/19 03:27:55;;;;;;;17.95;7.43;;;;;;;;;;5035208;28;20040;-67
2021/11/19 03:30:23;;;;;;;22.02;7.43;;;;;;;;;;5029715;28;20049;-68
2021/11/19 03:32:50;;;;;;;19.92;8.23;;;;;;;;;;5030882;28;20378;-68
2021/11/19 03:35:18;;;;;;;17.00;7.32;;;;;;;;;;5037583;28;20672;-67
2021/11/19 03:37:59;;;;;;;16.17;7.18;;;;;;;;;;5043088;28;20025;-67
2021/11/19 03:40:31;;;;;;;17.50;7.85;;;;;;;;;;5020315;28;20402;-68
2021/11/19 03:43:02;;;;;;;14.10;7.22;;;;;;;;;;5027111;28;20028;-68
2021/11/19 03:45:32;;;;;;;14.80;7.30;;;;;;;;;;5032020;28;20397;-68
2021/11/19 03:47:58;;;;;;;21.38;7.60;;;;;;;;;;5030583;28;20064;-68
2021/11/19 03:50:29;;;;;;;16.50;7.00;;;;;;;;;;5026345;28;20509;-68
2021/11/19 03:52:55;;;;;;;18.00;7.28;;;;;;;;;;5031684;28;20056;-68
2021/11/19 03:55:32;;;;;;;14.15;7.50;;;;;;;;;;5031334;28;20167;-68
2021/11/19 03:58:00;;;;;;;18.55;7.55;;;;;;;;;;5029794;28;20025;-68
2021/11/19 04:00:47;;;;;;;15.35;7.15;;;;;;;;;;5030706;28;20848;-66
2021/11/19 04:03:15;;;;;;;23.45;13.15;;;;;;;;;;5028710;28;20056;-65
2021/11/19 04:05:43;;;;;;;21.67;8.77;;;;;;;;;;5028899;28;20060;-68
2021/11/19 04:08:09;;;;;;;19.45;8.60;;;;;;;;;;5029307;28;20029;-68
2021/11/19 04:10:35;;;;;;;17.20;7.75;;;;;;;;;;5032423;28;20486;-67
2021/11/19 04:13:03;;;;;;;16.98;7.47;;;;;;;;;;5031853;28;20429;-68
2021/11/19 04:15:31;;;;;;;;;;;;;;;;;;5031868;28;20078;-68
2021/11/19 04:18:03;;;;;;;17.55;7.80;;;;;;;;;;5029635;28;19913;-68
2021/11/19 04:20:30;;;;;;;17.08;8.00;;;;;;;;;;5029372;28;20030;-68
2021/11/19 04:22:56;;;;;;;16.75;8.30;;;;;;;;;;5030254;28;20029;-68
2021/11/19 04:25:23;;;;;;;21.00;8.18;;;;;;;;;;5030110;28;20382;-68
2021/11/19 04:27:48;;;;;;;;;;;;;;;;;;5031565;28;20389;-68
2021/11/19 04:30:19;;;;;;;18.55;8.00;;;;;;;;;;5028785;28;20008;-68
2021/11/19 04:32:45;;;;;;;19.33;7.75;;;;;;;;;;5032510;28;20112;-68
2021/11/19 04:35:11;;;;;;;17.92;8.10;;;;;;;;;;5029350;28;20034;-67
2021/11/19 04:37:37;;;;;;;18.02;7.85;;;;;;;;;;5031048;28;20071;-68
2021/11/19 04:40:05;;;;;;;18.20;8.10;;;;;;;;;;5031669;28;20035;-68
2021/11/19 04:42:31;;;;;;;21.88;10.35;;;;;;;;;;5032077;28;20036;-68
2021/11/19 04:44:57;;;;;;;17.38;8.73;;;;;;;;;;5029387;28;20108;-68
2021/11/19 04:47:22;;;;;;;17.35;8.07;;;;;;;;;;5033121;28;20502;-68
2021/11/19 04:49:48;;;;;;;16.60;8.30;;;;;;;;;;5025901;28;20029;-68
2021/11/19 04:52:19;;;;;;;21.65;8.70;;;;;;;;;;5029621;28;20116;-68
2021/11/19 04:54:51;;;;;;;19.48;8.48;;;;;;;;;;5030622;28;20033;-68
2021/11/19 04:57:17;;;;;;;19.33;8.70;;;;;;;;;;5031139;28;20026;-67
2021/11/19 04:59:44;;;;;;;17.23;8.40;;;;;;;;;;5030639;28;20025;-67
2021/11/19 05:02:14;;;;;;;19.42;8.48;;;;;;;;;;5027957;28;20299;-68
2021/11/19 05:04:41;;;;;;;17.80;8.57;;;;;;;;;;5025923;28;20044;-68
2021/11/19 05:07:07;;;;;;;17.77;8.35;;;;;;;;;;4676681;28;10000118;-68
2021/11/19 05:09:34;;;;;;;21.10;9.35;;;;;;;;;;5021167;28;20067;-68
2021/11/19 05:12:02;;;;;;;21.90;10.88;;;;;;;;;;5026005;28;20056;-68
2021/11/19 05:14:29;;;;;;;19.15;8.80;;;;;;;;;;5030231;28;20490;-68
2021/11/19 05:16:55;;;;;;;20.38;10.27;;;;;;;;;;5024179;28;20056;-68
2021/11/19 05:19:22;;;;;;;17.85;10.15;;;;;;;;;;5023130;28;20469;-68
2021/11/19 05:21:53;;;;;;;21.80;11.93;;;;;;;;;;5030417;28;20032;-68
2021/11/19 05:24:19;;;;;;;20.70;10.40;;;;;;;;;;5032369;28;20053;-67
2021/11/19 05:26:54;;;;;;;22.95;9.30;;;;;;;;;;5025144;28;20036;-68
2021/11/19 05:29:21;;;;;;;21.60;9.93;;;;;;;;;;5024921;28;20036;-68
2021/11/19 05:31:47;;;;;;;19.67;8.73;;;;;;;;;;4678094;28;10000502;-68
2021/11/19 05:34:13;;;;;;;22.23;9.98;;;;;;;;;;5023113;28;20087;-68
2021/11/19 05:36:40;;;;;;;17.13;8.57;;;;;;;;;;5023124;28;20036;-68
2021/11/19 05:39:06;;;;;;;22.13;8.98;;;;;;;;;;5023991;28;20462;-68
2021/11/19 05:41:32;;;;;;;22.63;9.65;;;;;;;;;;5024808;28;20132;-68
2021/11/19 05:43:57;;;;;;;15.77;8.13;;;;;;;;;;5020862;28;20021;-68
2021/11/19 05:46:28;;;;;;;19.70;8.88;;;;;;;;;;5024964;28;20360;-68
2021/11/19 05:48:58;;;;;;;17.58;8.73;;;;;;;;;;5020025;28;20035;-68
2021/11/19 05:51:27;;;;;;;14.68;7.75;;;;;;;;;;5023469;28;20036;-68
2021/11/19 05:53:54;;;;;;;18.88;9.30;;;;;;;;;;5023905;28;20508;-68
2021/11/19 05:56:22;;;;;;;25.67;11.20;;;;;;;;;;5022729;28;20033;-70
2021/11/19 05:58:47;;;;;;;18.00;9.13;;;;;;;;;;5021019;28;20037;-71
2021/11/19 06:01:26;;;;;;;18.05;9.20;;;;;;;;;;5014412;28;20054;-70
2021/11/19 06:03:58;;;;;;;21.17;12.27;;;;;;;;;;5020395;28;20075;-70
2021/11/19 06:06:26;;;;;;;17.30;9.57;;;;;;;;;;5022172;28;20513;-70
2021/11/19 06:08:58;;;;;;;18.20;8.68;;;;;;;;;;5017988;28;20561;-70
2021/11/19 06:11:38;;;;;;;19.27;9.15;;;;;;;;;;5018143;28;20035;-70
2021/11/19 06:14:09;;;;;;;25.23;13.57;;;;;;;;;;5023098;28;20654;-70
2021/11/19 06:16:38;;;;;;;31.17;14.65;;;;;;;;;;5024999;28;20031;-70
2021/11/19 06:19:11;;;;;;;23.80;10.88;;;;;;;;;;5022160;28;20047;-70
2021/11/19 06:21:41;;;;;;;19.50;9.95;;;;;;;;;;5022799;28;20031;-71
2021/11/19 06:24:13;;;;;;;19.25;9.88;;;;;;;;;;5019103;28;20032;-71
2021/11/19 06:26:41;;;;;;;18.45;9.25;;;;;;;;;;5020916;28;20052;-70
2021/11/19 06:29:06;;;;;;;17.88;9.60;;;;;;;;;;5017982;28;20029;-70
2021/11/19 06:31:35;;;;;;;18.35;8.93;;;;;;;;;;5020703;28;20048;-70
2021/11/19 06:34:00;;;;;;;15.80;8.68;;;;;;;;;;5038210;28;20121;-70
2021/11/19 06:36:31;;;;;;;17.65;9.13;;;;;;;;;;5020064;28;20112;-70
2021/11/19 06:38:58;;;;;;;16.98;9.25;;;;;;;;;;5020190;28;20288;-70
2021/11/19 06:48:44;;;;;;;17.88;8.88;;;;;;;;;;5021377;28;20123;-70
2021/11/19 06:51:11;;;;;;;14.43;7.15;;;;;;;;;;5011686;28;21759;-70
2021/11/19 06:53:37;;;;;;;14.77;7.38;;;;;;;;;;5018307;28;20029;-70
2021/11/19 06:56:04;;;;;;;14.43;7.97;;;;;;;;;;5023429;28;20041;-70
2021/11/19 06:58:30;;;;;;;16.17;7.85;;;;;;;;;;5019025;28;20128;-70
2021/11/19 07:00:57;;;;;;;15.20;7.72;;;;;;;;;;5015558;28;21811;-70
2021/11/19 07:03:24;;;;;;;15.68;7.53;;;;;;;;;;5023484;28;20025;-70
2021/11/19 07:05:51;;;;;;;14.13;7.95;;;;;;;;;;5020859;28;20039;-70
2021/11/19 07:08:17;;;;;;;18.63;8.32;;;;;;;;;;5023265;28;20079;-71
2021/11/19 07:10:44;;;;;;;15.50;7.90;;;;;;;;;;5025975;28;20029;-70
2021/11/19 07:13:12;;;;;;;42.47;19.23;;;;;;;;;;5023208;28;20068;-70
2021/11/19 07:15:38;;;;;;;21.40;10.98;;;;;;;;;;5024288;28;20114;-70
2021/11/19 07:18:05;;;;;;;14.68;8.15;;;;;;;;;;5021708;28;20538;-71
2021/11/19 07:20:31;;;;;;;17.27;7.93;;;;;;;;;;5014375;28;20033;-71
2021/11/19 07:22:58;;;;;;;12.05;7.53;;;;;;;;;;5031938;28;20033;-70
2021/11/19 07:25:24;;;;;;;;;;;;;;;;;;5020839;28;20029;-69
2021/11/19 07:27:56;;;;;;;14.90;7.97;;;;;;;;;;5020487;28;19935;-69
2021/11/19 07:30:26;;;;;;;13.68;7.20;;;;;;;;;;5015032;28;20154;-69
2021/11/19 07:32:52;;;;;;;13.98;7.68;;;;;;;;;;5014788;28;20758;-69
2021/11/19 07:35:18;;;;;;;11.77;7.43;;;;;;;;;;5013434;28;20108;-69
2021/11/19 07:37:45;;;;;;;13.07;7.22;;;;;;;;;;5020981;28;20014;-69
2021/11/19 07:40:12;;;;;;;14.68;7.78;;;;;;;;;;5027295;28;20095;-69
2021/11/19 07:42:40;;;;;;;;;;;;;;;;;;5027640;28;20029;-69
2021/11/19 07:45:06;;;;;;;15.88;7.63;;;;;;;;;;5024336;28;20439;-69
2021/11/19 07:47:32;;;;;;;13.77;7.13;;;;;;;;;;5026275;28;20144;-69
2021/11/19 07:49:57;;;;;;;10.95;6.05;;;;;;;;;;5021002;28;20071;-69
2021/11/19 07:52:23;;;;;;;11.73;6.50;;;;;;;;;;5021177;28;20029;-69
2021/11/19 07:54:48;;;;;;;11.95;6.10;;;;;;;;;;5026410;28;20025;-69
2021/11/19 07:57:14;;;;;;;9.13;6.07;;;;;;;;;;5027225;28;20138;-69
2021/11/19 07:59:39;;;;;;;10.90;6.90;;;;;;;;;;5016086;28;20033;-69
2021/11/19 08:02:06;;;;;;;10.55;6.32;;;;;;;;;;5023800;28;20029;-69
2021/11/19 08:04:33;;;;;;;10.18;6.20;;;;;;;;;;5023098;28;20113;-69
2021/11/19 08:07:00;;;;;;;9.55;5.72;;;;;;;;;;5026015;28;20044;-68
2021/11/19 08:09:26;;;;;;;9.33;5.93;;;;;;;;;;5021966;28;20072;-69
2021/11/19 08:11:52;;;;;;;9.70;6.07;;;;;;;;;;5021632;28;20034;-69
2021/11/19 08:14:18;;;;;;;12.32;6.50;;;;;;;;;;5019916;28;20390;-69
2021/11/19 08:16:50;;;;;;;8.88;5.90;;;;;;;;;;5017625;28;20056;-69
2021/11/19 08:19:25;;;;;;;8.75;5.50;;;;;;;;;;5023125;28;20037;-69
2021/11/19 08:21:52;;;;;;;8.13;5.60;;;;;;;;;;5024247;28;20021;-69
2021/11/19 08:24:18;;;;;;;8.13;5.43;;;;;;;;;;5025304;28;20018;-69
2021/11/19 08:26:49;;;;;;;11.98;6.28;;;;;;;;;;5024391;28;20068;-69
2021/11/19 08:29:19;;;;;;;9.15;5.50;;;;;;;;;;5018909;28;20040;-69
2021/11/19 08:31:46;;;;;;;8.63;5.13;;;;;;;;;;5023372;28;20065;-68
2021/11/19 08:34:11;;;;;;;10.45;5.68;;;;;;;;;;5029736;28;20040;-68
2021/11/19 08:36:39;;;;;;;8.07;5.38;;;;;;;;;;5030512;28;20014;-68
2021/11/19 08:39:07;;;;;;;;;;;;;;;;;;5028446;28;20108;-68
2021/11/19 08:41:32;;;;;;;8.13;5.07;;;;;;;;;;5024480;28;20382;-68
2021/11/19 08:43:59;;;;;;;8.50;5.30;;;;;;;;;;5028315;28;20029;-68
2021/11/19 08:46:28;;;;;;;8.05;5.10;;;;;;;;;;5029266;28;20033;-68
2021/11/19 08:48:54;;;;;;;7.93;5.40;;;;;;;;;;5025223;28;20752;-68
2021/11/19 08:51:25;;;;;;;8.30;5.53;;;;;;;;;;5027420;28;20030;-68
2021/11/19 08:53:53;;;;;;;8.90;5.28;;;;;;;;;;5038083;28;20037;-68
2021/11/19 08:56:21;;;;;;;8.38;5.00;;;;;;;;;;5017931;28;20026;-68
2021/11/19 08:58:47;;;;;;;6.97;4.68;;;;;;;;;;5026484;28;20140;-68
2021/11/19 09:01:16;;;;;;;7.88;4.93;;;;;;;;;;5025817;28;20029;-68
2021/11/19 09:03:43;;;;;;;8.75;5.05;;;;;;;;;;5024905;28;20041;-68
2021/11/19 09:06:12;;;;;;;9.05;4.72;;;;;;;;;;5026156;28;20033;-68
2021/11/19 09:08:39;;;;;;;7.95;4.80;;;;;;;;;;5027777;28;20087;-67
2021/11/19 09:11:07;;;;;;;8.65;4.53;;;;;;;;;;5038069;28;20148;-67
2021/11/19 09:13:32;;;;;;;;;;;;;;;;;;5024205;28;20021;-68
2021/11/19 09:15:59;;;;;;;7.82;4.80;;;;;;;;;;5026256;28;21380;-67
2021/11/19 09:18:33;;;;;;;6.87;4.37;;;;;;;;;;5019775;28;20565;-67
2021/11/19 09:21:28;;;;;;;7.05;4.60;;;;;;;;;;5028935;28;20304;-67
2021/11/19 09:24:01;;;;;;;7.07;4.70;;;;;;;;;;5026050;28;20025;-68
2021/11/19 09:26:47;;;;;;;8.13;4.85;;;;;;;;;;5026244;28;20025;-66
2021/11/19 09:29:25;;;;;;;7.32;4.93;;;;;;;;;;5015418;28;20462;-67
2021/11/19 09:35:14;;;;;;;7.28;4.68;;;;;;;;;;5029242;28;20095;-67
2021/11/19 09:37:41;;;;;;;6.65;4.47;;;;;;;;;;5013736;28;20026;-67
2021/11/19 09:40:08;;;;;;;7.10;4.80;;;;;;;;;;5025243;28;20568;-67
2021/11/19 09:42:44;;;;;;;6.50;4.38;;;;;;;;;;5027180;28;20076;-66
2021/11/19 09:45:32;;;;;;;6.85;4.57;;;;;;;;;;5029065;28;20417;-67
2021/11/19 09:48:19;;;;;;;8.45;4.70;;;;;;;;;;5026462;28;20024;-67
2021/11/19 09:51:06;;;;;;;;;;;;;;;;;;5027138;28;20564;-67
2021/11/19 09:53:43;;;;;;;6.95;4.20;;;;;;;;;;5022964;28;19909;-67
2021/11/19 09:56:24;;;;;;;;;;;;;;;;;;5027046;28;20478;-67
2021/11/19 09:59:08;;;;;;;5.50;3.72;;;;;;;;;;5029315;28;19935;-67
2021/11/19 10:01:52;;;;;;;5.57;3.83;;;;;;;;;;5023088;28;20029;-67
2021/11/19 10:04:57;;;;;;;5.18;3.75;;;;;;;;;;5026235;28;20732;-67
2021/11/19 10:07:41;;;;;;;7.22;3.90;;;;;;;;;;4993435;28;20033;-67
2021/11/19 10:10:51;;;;;;;5.53;3.90;;;;;;;;;;5029421;28;20029;-67
2021/11/19 10:13:49;;;;;;;5.25;3.38;;;;;;;;;;5029667;28;20430;-67
2021/11/19 10:16:50;;;;;;;5.45;3.10;;;;;;;;;;4998150;28;20037;-66
2021/11/19 10:19:28;;;;;;;5.65;3.75;;;;;;;;;;5024286;28;20025;-67
2021/11/19 10:22:00;;;;;;;4.30;3.17;;;;;;;;;;5029561;28;20021;-67
2021/11/19 10:24:56;;;;;;;4.90;3.42;;;;;;;;;;5028559;28;20398;-67
2021/11/19 10:27:37;;;;;;;5.97;4.05;;;;;;;;;;5028568;28;20029;-67
2021/11/19 10:30:22;;;;;;;5.57;3.47;;;;;;;;;;5026404;28;20145;-67
2021/11/19 10:32:48;;;;;;;4.40;3.70;;;;;;;;;;5028356;28;20080;-66
2021/11/19 10:35:26;;;;;;;5.55;3.40;;;;;;;;;;5025558;28;20072;-67
2021/11/19 10:38:13;;;;;;;4.88;3.40;;;;;;;;;;5024084;28;20049;-66
2021/11/19 10:41:09;;;;;;;3.95;3.00;;;;;;;;;;5029333;28;20031;-67
2021/11/19 10:44:05;;;;;;;5.35;2.67;;;;;;;;;;5027903;28;20049;-67
2021/11/19 10:47:04;;;;;;;4.50;2.70;;;;;;;;;;5033029;28;20108;-67
2021/11/19 10:49:55;;;;;;;4.55;3.10;;;;;;;;;;5028990;28;20347;-67
2021/11/19 10:52:39;;;;;;;4.50;3.05;;;;;;;;;;5035437;28;20029;-67
2021/11/19 10:55:43;;;;;;;3.67;2.67;;;;;;;;;;5030493;28;20025;-67
2021/11/19 10:58:49;;;;;;;5.50;2.50;;;;;;;;;;5031365;28;20463;-67
2021/11/19 11:01:58;;;;;;;3.45;2.47;;;;;;;;;;5033632;28;20502;-67
2021/11/19 11:04:57;;;;;;;3.67;2.50;;;;;;;;;;5030431;28;20041;-67
2021/11/19 11:07:34;;;;;;;3.70;2.15;;;;;;;;;;5033499;28;20215;-67
2021/11/19 11:10:08;;;;;;;3.15;2.30;;;;;;;;;;5034382;28;20060;-67
2021/11/19 11:12:40;;;;;;;2.90;2.20;;;;;;;;;;5024244;28;20034;-67
2021/11/19 11:15:19;;;;;;;3.20;2.10;;;;;;;;;;5030856;28;20030;-67
2021/11/19 11:17:54;;;;;;;3.03;2.20;;;;;;;;;;5032033;28;20712;-67
2021/11/19 11:20:38;;;;;;;3.00;2.10;;;;;;;;;;5014925;28;20030;-67
2021/11/19 11:23:21;;;;;;;2.95;2.17;;;;;;;;;;5030737;28;20025;-67
2021/11/19 11:26:16;;;;;;;3.00;2.20;;;;;;;;;;5035320;28;20044;-68
2021/11/19 11:28:52;;;;;;;2.78;2.10;;;;;;;;;;5025573;28;20041;-67
2021/11/19 11:31:29;;;;;;;3.20;2.03;;;;;;;;;;5034380;28;20041;-67
2021/11/19 11:34:26;;;;;;;2.92;2.30;;;;;;;;;;5033668;28;20021;-67
2021/11/19 11:37:16;;;;;;;2.85;2.17;;;;;;;;;;5017766;28;20064;-67
2021/11/19 11:40:04;;;;;;;2.83;2.08;;;;;;;;;;5030025;28;20021;-67
2021/11/19 11:42:36;;;;;;;3.17;2.28;;;;;;;;;;5040008;28;20051;-67
2021/11/19 11:45:30;;;;;;;3.58;1.88;;;;;;;;;;5029070;28;20455;-67
2021/11/19 11:48:22;;;;;;;3.17;2.10;;;;;;;;;;5033729;28;20029;-67
2021/11/19 11:51:05;;;;;;;2.75;1.83;;;;;;;;;;5032504;28;20695;-67
2021/11/19 11:53:43;;;;;;;2.63;2.00;;;;;;;;;;5013556;28;20395;-67
2021/11/19 11:56:08;;;;;;;2.78;2.13;;;;;;;;;;5026480;28;20087;-67
2021/11/19 11:59:06;;;;;;;2.70;1.90;;;;;;;;;;5031461;28;20025;-67
2021/11/19 12:01:41;;;;;;;2.97;2.08;;;;;;;;;;5032518;28;20052;-67
2021/11/19 12:04:43;;;;;;;4.35;2.25;;;;;;;;;;5033521;28;20079;-67
2021/11/19 12:07:36;;;;;;;3.85;2.05;;;;;;;;;;4962669;28;20043;-67
2021/11/19 12:10:31;;;;;;;2.42;1.75;;;;;;;;;;5036526;28;20443;-67
2021/11/19 12:13:41;;;;;;;3.10;2.25;;;;;;;;;;5022344;28;20021;-67
2021/11/19 12:16:42;;;;;;;2.72;1.92;;;;;;;;;;5005796;28;20059;-67
2021/11/19 12:19:35;;;;;;;42.10;24.38;;;;;;;;;;5030603;28;20021;-67
2021/11/19 12:22:45;;;;;;;2.40;2.10;;;;;;;;;;5029135;28;20040;-67
2021/11/19 12:25:34;;;;;;;2.55;1.80;;;;;;;;;;5002322;28;20379;-67
2021/11/19 12:28:03;;;;;;;2.92;2.22;;;;;;;;;;5026015;28;20029;-67
2021/11/19 12:30:44;;;;;;;3.42;2.60;;;;;;;;;;5030003;28;20049;-68
2021/11/19 12:33:23;;;;;;;3.05;2.35;;;;;;;;;;5032530;28;20044;-67
2021/11/19 12:35:49;;;;;;;2.42;2.00;;;;;;;;;;5033259;28;20029;-67
2021/11/19 12:38:19;;;;;;;2.67;2.20;;;;;;;;;;5028850;28;20029;-67
2021/11/19 12:40:50;;;;;;;3.00;2.30;;;;;;;;;;5028761;28;20427;-67
2021/11/19 12:43:53;;;;;;;2.70;1.95;;;;;;;;;;5032931;28;20022;-67
2021/11/19 12:46:18;;;;;;;3.83;2.10;;;;;;;;;;5030370;28;20037;-68
2021/11/19 12:49:12;;;;;;;3.92;2.30;;;;;;;;;;5028092;28;20471;-68
2021/11/19 12:51:47;;;;;;;5.35;2.00;;;;;;;;;;5029368;28;20021;-67
2021/11/19 12:54:26;;;;;;;3.40;2.15;;;;;;;;;;4330942;28;10000493;-67
2021/11/19 12:57:26;;;;;;;4.38;3.28;;;;;;;;;;5031881;28;20112;-68
2021/11/19 13:00:03;;;;;;;3.75;2.17;;;;;;;;;;5025966;28;20536;-67
2021/11/19 13:02:38;;;;;;;3.70;2.40;;;;;;;;;;5026979;28;20040;-68
2021/11/19 13:05:07;;;;;;;3.17;2.55;;;;;;;;;;5030273;28;20076;-67
2021/11/19 13:07:32;;;;;;;3.17;2.30;;;;;;;;;;5029734;28;20116;-69
2021/11/19 13:10:02;;;;;;;3.58;2.63;;;;;;;;;;5031060;28;20151;-68
2021/11/19 13:12:30;;;;;;;3.70;2.38;;;;;;;;;;5025592;28;20048;-68
2021/11/19 13:15:23;;;;;;;5.00;2.78;;;;;;;;;;5028264;28;20037;-68
2021/11/19 13:17:58;;;;;;;4.25;2.78;;;;;;;;;;5025528;28;20091;-68
2021/11/19 13:20:44;;;;;;;4.18;3.00;;;;;;;;;;5024837;28;20068;-68
2021/11/19 13:23:28;;;;;;;4.60;2.58;;;;;;;;;;5025738;28;20029;-68
2021/11/19 13:25:56;;;;;;;4.05;2.83;;;;;;;;;;5028736;28;20025;-68
2021/11/19 13:28:54;;;;;;;4.00;2.63;;;;;;;;;;5029172;28;20052;-68
2021/11/19 13:31:20;;;;;;;3.83;2.75;;;;;;;;;;5024806;28;20119;-68
2021/11/19 13:34:00;;;;;;;3.95;2.92;;;;;;;;;;5031109;28;20476;-67
2021/11/19 13:36:48;;;;;;;3.95;2.80;;;;;;;;;;5032190;28;20026;-67
2021/11/19 13:39:30;;;;;;;3.83;2.95;;;;;;;;;;5031144;28;20037;-67
2021/11/19 13:41:58;;;;;;;3.67;3.00;;;;;;;;;;5032210;28;20088;-67
2021/11/19 13:45:09;;;;;;;4.63;3.00;;;;;;;;;;5040504;28;20070;-67
2021/11/19 13:47:43;;;;;;;4.32;3.25;;;;;;;;;;5044870;28;20021;-68
2021/11/19 13:50:15;;;;;;;4.00;3.00;;;;;;;;;;5030516;28;20086;-67
2021/11/19 13:52:47;;;;;;;4.15;3.10;;;;;;;;;;5026720;28;20924;-67
2021/11/19 13:55:39;;;;;;;4.70;3.53;;;;;;;;;;5031135;28;20037;-67
2021/11/19 13:58:05;;;;;;;4.30;3.40;;;;;;;;;;5020560;28;20021;-67
2021/11/19 14:00:47;;;;;;;23.90;12.25;;;;;;;;;;5025857;28;20148;-67
2021/11/19 14:03:22;;;;;;;20.83;12.43;;;;;;;;;;5022917;28;20494;-67
2021/11/19 14:05:54;;;;;;;4.90;3.90;;;;;;;;;;5028896;28;20471;-67
2021/11/19 14:08:27;;;;;;;10.18;6.32;;;;;;;;;;5029407;28;20033;-67
2021/11/19 14:10:56;;;;;;;5.35;3.45;;;;;;;;;;5023227;28;20036;-67
2021/11/19 14:13:29;;;;;;;5.25;4.15;;;;;;;;;;5030536;28;20033;-67
2021/11/19 14:16:22;;;;;;;5.03;3.30;;;;;;;;;;5027208;28;20405;-68
2021/11/19 14:19:12;;;;;;;6.05;4.22;;;;;;;;;;5026030;28;20083;-67
2021/11/19 14:22:02;;;;;;;5.72;3.83;;;;;;;;;;5027813;28;20038;-68
2021/11/19 14:24:58;;;;;;;6.07;4.25;;;;;;;;;;5027181;28;20031;-67
2021/11/19 14:27:31;;;;;;;7.13;3.92;;;;;;;;;;5023990;28;20037;-67
2021/11/19 14:30:04;;;;;;;8.35;4.93;;;;;;;;;;5027205;28;20041;-67
2021/11/19 14:32:39;;;;;;;5.13;3.85;;;;;;;;;;5026774;28;20033;-67
2021/11/19 14:35:21;;;;;;;5.30;3.80;;;;;;;;;;5026318;28;20670;-67
2021/11/19 14:37:48;;;;;;;5.25;3.53;;;;;;;;;;5030276;28;20030;-68
2021/11/19 14:40:26;;;;;;;7.60;4.85;;;;;;;;;;5022927;28;20076;-67
2021/11/19 14:42:53;;;;;;;9.75;5.97;;;;;;;;;;5022627;28;20033;-67
2021/11/19 14:45:31;;;;;;;5.95;4.20;;;;;;;;;;5027541;28;20037;-67
2021/11/19 14:48:07;;;;;;;5.65;3.83;;;;;;;;;;5028482;28;20541;-67
2021/11/19 14:54:03;;;;;;;7.70;5.85;;;;;;;;;;5027078;28;20074;-67
2021/11/19 14:56:35;;;;;;;4.53;3.25;;;;;;;;;;5026104;28;20041;-68
2021/11/19 14:59:09;;;;;;;4.25;3.17;;;;;;;;;;5021906;28;20025;-68
2021/11/19 15:02:07;;;;;;;13.20;6.78;;;;;;;;;;5031523;28;20108;-68
2021/11/19 15:04:34;;;;;;;4.22;3.40;;;;;;;;;;5025941;28;20060;-68
2021/11/19 15:07:11;;;;;;;6.28;3.30;;;;;;;;;;5030073;28;20022;-68
2021/11/19 15:10:11;;;;;;;4.35;2.92;;;;;;;;;;5031339;28;20029;-68
2021/11/19 15:12:41;;;;;;;3.97;3.22;;;;;;;;;;5024074;28;20038;-67
2021/11/19 15:15:21;;;;;;;4.05;3.28;;;;;;;;;;5023409;28;20022;-67
2021/11/19 15:18:18;;;;;;;4.43;3.22;;;;;;;;;;5026633;28;20084;-67
2021/11/19 15:21:27;;;;;;;3.72;2.90;;;;;;;;;;5024977;28;20029;-68
2021/11/19 15:23:59;;;;;;;3.28;2.78;;;;;;;;;;5015760;28;20475;-68
2021/11/19 15:26:30;;;;;;;4.68;2.78;;;;;;;;;;5028889;28;20478;-67
2021/11/19 15:29:30;;;;;;;3.42;2.67;;;;;;;;;;5022641;28;20999;-68
2021/11/19 15:32:10;;;;;;;4.00;3.10;;;;;;;;;;5014594;28;20049;-68
2021/11/19 15:34:58;;;;;;;3.47;2.90;;;;;;;;;;5029691;28;20080;-67
2021/11/19 15:37:35;;;;;;;3.80;2.70;;;;;;;;;;5031063;28;20398;-68